createdAt,value
2019-02-26T00:02:17.071Z,64.77
2019-02-26T00:04:42.312Z,64.60
2019-02-26T00:07:08.749Z,63.48
2019-02-26T00:09:35.519Z,63.17
2019-02-26T00:12:02.025Z,62.96
2019-02-26T00:14:30.315Z,64.34
2019-02-26T00:16:56.934Z,64.07
2019-02-26T00:19:23.476Z,63.83
2019-02-26T00:21:51.766Z,63.81
2019-02-26T00:24:18.418Z,63.66
2019-02-26T00:26:45.214Z,63.62
2019-02-26T00:29:11.767Z,63.92
2019-02-26T00:31:38.199Z,64.12
2019-02-26T00:34:06.002Z,63.93
2019-02-26T00:36:34.174Z,64.33
2019-02-26T00:39:03.464Z,65.55
2019-02-26T00:41:31.850Z,64.50
2019-02-26T00:43:59.943Z,64.53
2019-02-26T00:46:28.502Z,64.88
2019-02-26T00:48:56.363Z,65.10
2019-02-26T00:51:24.753Z,64.94
2019-02-26T00:53:53.314Z,65.11
2019-02-26T00:56:22.834Z,64.91
2019-02-26T00:58:50.385Z,65.33
2019-02-26T01:01:17.766Z,65.26
2019-02-26T01:03:47.102Z,65.39
2019-02-26T01:06:14.828Z,65.41
2019-02-26T01:08:44.653Z,64.69
2019-02-26T01:11:12.034Z,64.86
2019-02-26T01:13:39.517Z,64.80
2019-02-26T01:16:06.158Z,64.85
2019-02-26T01:18:32.690Z,65.48
2019-02-26T01:21:00.277Z,66.12
2019-02-26T01:23:28.946Z,65.81
2019-02-26T01:25:55.782Z,65.33
2019-02-26T01:28:22.971Z,65.72
2019-02-26T01:30:53.732Z,66.04
2019-02-26T01:33:18.973Z,65.94
2019-02-26T01:35:45.612Z,66.27
2019-02-26T01:38:14.299Z,66.33
2019-02-26T01:40:43.569Z,68.04
2019-02-26T01:43:09.111Z,65.80
2019-02-26T01:45:35.646Z,64.75
2019-02-26T01:48:04.076Z,65.14
2019-02-26T01:50:33.236Z,65.86
2019-02-26T01:53:00.994Z,67.46
2019-02-26T01:55:27.833Z,67.95
2019-02-26T01:57:58.471Z,68.00
2019-02-26T02:00:25.459Z,67.36
2019-02-26T02:02:51.231Z,67.34
2019-02-26T02:05:19.638Z,67.15
2019-02-26T02:07:48.976Z,67.06
2019-02-26T02:10:15.955Z,67.85
2019-02-26T02:12:42.396Z,67.98
2019-02-26T02:15:12.398Z,67.94
2019-02-26T02:17:40.273Z,67.32
2019-02-26T02:20:12.670Z,67.42
2019-02-26T02:22:40.008Z,67.66
2019-02-26T02:25:08.790Z,67.66
2019-02-26T02:27:35.430Z,67.77
2019-02-26T02:30:02.298Z,67.81
2019-02-26T02:32:31.733Z,67.19
2019-02-26T02:35:00.917Z,68.16
2019-02-26T02:37:29.436Z,67.79
2019-02-26T02:39:55.795Z,67.68
2019-02-26T02:42:22.226Z,68.18
2019-02-26T02:44:49.387Z,68.12
2019-02-26T02:47:17.146Z,67.51
2019-02-26T02:49:44.363Z,67.51
2019-02-26T02:52:11.846Z,68.20
2019-02-26T02:54:41.080Z,68.14
2019-02-26T02:57:09.456Z,67.84
2019-02-26T02:59:37.371Z,68.15
2019-02-26T03:02:04.034Z,67.81
2019-02-26T03:04:31.731Z,67.49
2019-02-26T03:07:00.699Z,68.55
2019-02-26T03:09:27.327Z,69.48
2019-02-26T03:11:55.025Z,68.57
2019-02-26T03:14:21.628Z,68.98
2019-02-26T03:16:50.827Z,68.17
2019-02-26T03:19:17.018Z,68.71
2019-02-26T03:21:47.170Z,68.50
2019-02-26T03:24:13.815Z,69.25
2019-02-26T03:26:41.374Z,68.10
2019-02-26T03:29:08.325Z,69.97
2019-02-26T03:31:40.533Z,70.34
2019-02-26T03:34:10.579Z,70.99
2019-02-26T03:36:34.193Z,69.42
2019-02-26T03:39:02.816Z,69.17
2019-02-26T03:41:31.237Z,69.55
2019-02-26T03:44:00.553Z,69.03
2019-02-26T03:46:26.361Z,69.73
2019-02-26T03:48:53.201Z,69.78
2019-02-26T03:51:19.637Z,69.72
2019-02-26T03:53:46.067Z,69.51
2019-02-26T03:56:14.894Z,69.70
2019-02-26T03:58:41.086Z,69.36
2019-02-26T04:01:10.219Z,70.00
2019-02-26T04:03:37.581Z,69.59
2019-02-26T04:06:08.771Z,70.08
2019-02-26T04:08:33.474Z,70.50
2019-02-26T04:11:01.973Z,69.05
2019-02-26T04:13:28.291Z,68.82
2019-02-26T04:15:57.113Z,68.93
2019-02-26T04:18:23.203Z,70.34
2019-02-26T04:20:49.635Z,69.35
2019-02-26T04:23:18.722Z,69.45
2019-02-26T04:25:57.688Z,69.94
2019-02-26T04:28:33.526Z,70.03
2019-02-26T04:31:18.277Z,69.84
2019-02-26T04:34:05.306Z,69.67
2019-02-26T04:36:51.085Z,70.08
2019-02-26T04:39:30.214Z,69.99
2019-02-26T04:42:32.546Z,70.10
2019-02-26T04:45:25.648Z,70.24
2019-02-26T04:47:58.299Z,69.94
2019-02-26T04:50:28.650Z,69.79
2019-02-26T04:52:52.626Z,70.23
2019-02-26T04:55:19.519Z,70.16
2019-02-26T04:57:48.519Z,70.27
2019-02-26T05:00:14.391Z,69.50
2019-02-26T05:02:41.439Z,69.89
2019-02-26T05:05:08.179Z,68.43
2019-02-26T05:07:35.464Z,70.23
2019-02-26T05:10:04.523Z,69.05
2019-02-26T05:12:34.233Z,70.01
2019-02-26T05:14:59.436Z,70.22
2019-02-26T05:17:29.631Z,70.05
2019-02-26T05:19:54.351Z,68.51
2019-02-26T05:22:22.703Z,69.94
2019-02-26T05:24:50.290Z,70.04
2019-02-26T05:27:19.783Z,69.34
2019-02-26T05:29:48.818Z,70.35
2019-02-26T05:32:14.507Z,70.43
2019-02-26T05:34:44.783Z,70.66
2019-02-26T05:37:11.018Z,70.50
2019-02-26T05:39:37.810Z,71.21
2019-02-26T05:42:06.316Z,70.82
2019-02-26T05:44:32.718Z,70.55
2019-02-26T05:47:01.360Z,71.10
2019-02-26T05:49:27.580Z,70.63
2019-02-26T05:51:56.079Z,70.45
2019-02-26T05:54:24.365Z,70.64
2019-02-26T05:56:50.823Z,70.47
2019-02-26T05:59:17.966Z,71.14
2019-02-26T06:01:46.604Z,71.30
2019-02-26T06:04:14.946Z,70.69
2019-02-26T06:06:42.704Z,70.72
2019-02-26T06:09:09.137Z,70.78
2019-02-26T06:11:38.528Z,71.21
2019-02-26T06:14:07.139Z,71.62
2019-02-26T06:16:33.046Z,71.27
2019-02-26T06:18:59.581Z,71.60
2019-02-26T06:21:26.221Z,71.48
2019-02-26T06:23:53.886Z,71.16
2019-02-26T06:26:20.557Z,71.60
2019-02-26T06:28:52.903Z,71.14
2019-02-26T06:31:22.220Z,71.63
2019-02-26T06:33:50.535Z,72.00
2019-02-26T06:36:21.515Z,71.95
2019-02-26T06:38:49.700Z,72.93
2019-02-26T06:41:17.039Z,71.58
2019-02-26T06:43:47.590Z,71.82
2019-02-26T06:46:14.026Z,72.02
2019-02-26T06:48:40.790Z,71.88
2019-02-26T06:51:07.587Z,71.64
2019-02-26T06:53:34.225Z,71.55
2019-02-26T06:56:01.269Z,71.22
2019-02-26T06:58:28.012Z,71.00
2019-02-26T07:00:55.777Z,70.74
2019-02-26T07:03:24.784Z,71.64
2019-02-26T07:05:50.796Z,72.32
2019-02-26T07:08:18.910Z,72.54
2019-02-26T07:10:45.608Z,72.38
2019-02-26T07:13:14.066Z,72.93
2019-02-26T07:15:40.596Z,70.97
2019-02-26T07:18:10.280Z,69.51
2019-02-26T07:20:39.952Z,69.06
2019-02-26T07:23:08.118Z,70.34
2019-02-26T07:25:36.270Z,71.32
2019-02-26T07:28:03.011Z,70.68
2019-02-26T07:30:32.646Z,71.23
2019-02-26T07:32:59.484Z,71.40
2019-02-26T07:35:28.171Z,69.03
2019-02-26T07:37:56.679Z,68.28
2019-02-26T07:40:22.992Z,68.18
2019-02-26T07:42:51.268Z,68.23
2019-02-26T07:45:19.940Z,68.88
2019-02-26T07:47:49.147Z,68.32
2019-02-26T07:50:17.420Z,68.04
2019-02-26T07:52:44.090Z,68.10
2019-02-26T07:55:12.792Z,67.74
2019-02-26T07:57:40.549Z,68.58
2019-02-26T08:00:11.969Z,67.64
2019-02-26T08:02:38.503Z,68.00
2019-02-26T08:05:05.752Z,68.72
2019-02-26T08:07:32.289Z,68.98
2019-02-26T08:09:58.827Z,68.24
2019-02-26T08:12:25.258Z,68.08
2019-02-26T08:14:51.800Z,68.75
2019-02-26T08:17:18.330Z,67.82
2019-02-26T08:19:46.858Z,68.47
2019-02-26T08:22:13.140Z,68.57
2019-02-26T08:24:39.984Z,69.25
2019-02-26T08:27:08.537Z,69.10
2019-02-26T08:29:36.202Z,68.33
2019-02-26T08:32:03.074Z,68.64
2019-02-26T08:34:29.917Z,68.21
2019-02-26T08:36:56.351Z,67.15
2019-02-26T08:39:23.194Z,66.62
2019-02-26T08:42:01.300Z,66.81
2019-02-26T08:44:28.220Z,66.45
2019-02-26T08:46:54.986Z,65.56
2019-02-26T08:49:22.529Z,65.00
2019-02-26T08:51:49.184Z,63.73
2019-02-26T08:54:20.789Z,63.95
2019-02-26T08:56:44.005Z,64.06
2019-02-26T08:59:10.431Z,64.30
2019-02-26T09:01:36.865Z,63.72
2019-02-26T09:04:03.412Z,64.22
2019-02-26T09:06:30.039Z,63.64
2019-02-26T09:08:57.924Z,63.79
2019-02-26T09:11:26.223Z,63.57
2019-02-26T09:13:53.248Z,63.71
2019-02-26T09:16:22.264Z,63.70
2019-02-26T09:18:49.170Z,63.43
2019-02-26T09:21:15.633Z,63.56
2019-02-26T09:23:42.139Z,63.03
2019-02-26T09:26:08.779Z,62.89
2019-02-26T09:28:35.214Z,63.26
2019-02-26T09:31:04.209Z,63.05
2019-02-26T09:33:32.706Z,63.01
2019-02-26T09:35:59.153Z,62.04
2019-02-26T09:38:25.760Z,62.69
2019-02-26T09:40:54.596Z,62.92
2019-02-26T09:43:22.528Z,62.74
2019-02-26T09:45:50.605Z,62.32
2019-02-26T09:48:19.421Z,62.78
2019-02-26T09:50:48.305Z,61.72
2019-02-26T09:53:14.702Z,61.23
2019-02-26T09:55:41.446Z,61.04
2019-02-26T09:58:09.005Z,61.43
2019-02-26T10:00:35.437Z,62.68
2019-02-26T10:03:03.036Z,60.67
2019-02-26T10:05:30.455Z,60.93
2019-02-26T10:08:02.034Z,59.48
2019-02-26T10:10:29.170Z,58.70
2019-02-26T10:12:57.330Z,59.64
2019-02-26T10:15:23.662Z,59.33
2019-02-26T10:17:50.097Z,59.35
2019-02-26T10:20:22.801Z,59.41
2019-02-26T10:22:49.414Z,60.03
2019-02-26T10:25:16.156Z,58.57
2019-02-26T10:27:43.595Z,58.40
2019-02-26T10:30:14.419Z,57.68
2019-02-26T10:32:44.036Z,58.40
2019-02-26T10:35:15.895Z,58.40
2019-02-26T10:37:43.739Z,57.47
2019-02-26T10:40:12.150Z,57.47
2019-02-26T10:42:39.967Z,57.46
2019-02-26T10:45:08.662Z,56.83
2019-02-26T10:47:35.297Z,57.41
2019-02-26T10:50:01.893Z,58.02
2019-02-26T10:52:28.784Z,57.12
2019-02-26T10:54:55.396Z,56.55
2019-02-26T10:57:21.911Z,56.78
2019-02-26T10:59:48.447Z,56.78
2019-02-26T11:02:17.289Z,55.89
2019-02-26T11:04:43.927Z,55.43
2019-02-26T11:07:14.121Z,55.11
2019-02-26T11:09:40.222Z,55.28
2019-02-26T11:12:08.560Z,54.50
2019-02-26T11:14:36.431Z,54.42
2019-02-26T11:17:03.523Z,54.30
2019-02-26T11:19:33.847Z,54.38
2019-02-26T11:22:00.860Z,54.62
2019-02-26T11:24:28.795Z,53.83
2019-02-26T11:26:55.343Z,53.96
2019-02-26T11:29:21.830Z,53.99
2019-02-26T11:31:49.739Z,53.35
2019-02-26T11:34:16.334Z,53.68
2019-02-26T11:36:42.869Z,53.45
2019-02-26T11:39:11.920Z,54.12
2019-02-26T11:41:38.198Z,53.97
2019-02-26T11:44:10.031Z,53.87
2019-02-26T11:46:34.404Z,53.77
2019-02-26T11:49:01.200Z,53.62
2019-02-26T11:51:36.599Z,53.70
2019-02-26T11:53:56.100Z,55.14
2019-02-26T11:56:25.159Z,53.44
2019-02-26T11:58:51.116Z,53.04
2019-02-26T12:01:17.854Z,52.54
2019-02-26T12:03:44.604Z,52.58
2019-02-26T12:06:13.908Z,52.64
2019-02-26T12:08:42.412Z,53.66
2019-02-26T12:11:13.503Z,52.55
2019-02-26T12:13:39.539Z,51.59
2019-02-26T12:16:05.906Z,51.76
2019-02-26T12:18:36.734Z,52.24
2019-02-26T12:21:05.369Z,50.79
2019-02-26T12:23:31.322Z,51.24
2019-02-26T12:25:59.264Z,50.90
2019-02-26T12:28:28.311Z,50.89
2019-02-26T12:30:54.618Z,49.77
2019-02-26T12:33:21.055Z,49.89
2019-02-26T12:35:47.583Z,49.85
2019-02-26T12:38:20.735Z,49.20
2019-02-26T12:40:44.715Z,49.50
2019-02-26T12:43:12.523Z,50.04
2019-02-26T12:45:40.665Z,48.89
2019-02-26T12:48:10.213Z,49.40
2019-02-26T12:50:36.634Z,49.17
2019-02-26T12:53:05.317Z,49.47
2019-02-26T12:55:35.104Z,48.48
2019-02-26T12:58:00.237Z,48.84
2019-02-26T13:00:26.668Z,48.37
2019-02-26T13:02:54.942Z,49.76
2019-02-26T13:05:23.022Z,48.84
2019-02-26T13:07:49.868Z,48.79
2019-02-26T13:10:22.296Z,48.44
2019-02-26T13:12:53.856Z,48.15
2019-02-26T13:15:22.983Z,48.37
2019-02-26T13:17:54.173Z,48.32
2019-02-26T13:20:23.835Z,47.80
2019-02-26T13:22:50.277Z,47.11
2019-02-26T13:25:17.843Z,47.54
2019-02-26T13:27:48.085Z,46.91
2019-02-26T13:30:19.503Z,46.11
2019-02-26T13:33:05.341Z,46.39
2019-02-26T13:35:14.519Z,45.53
2019-02-26T13:37:42.442Z,45.88
2019-02-26T13:40:14.453Z,45.19
2019-02-26T13:42:40.991Z,44.82
2019-02-26T13:45:10.850Z,44.66
2019-02-26T13:47:37.543Z,44.24
2019-02-26T13:50:10.505Z,44.07
2019-02-26T13:52:38.807Z,43.70
2019-02-26T13:55:08.108Z,43.49
2019-02-26T13:57:34.747Z,42.66
2019-02-26T14:00:01.287Z,43.58
2019-02-26T14:02:27.719Z,42.51
2019-02-26T14:04:54.258Z,42.32
2019-02-26T14:07:20.790Z,42.16
2019-02-26T14:09:47.220Z,41.50
2019-02-26T14:12:13.962Z,41.50
2019-02-26T14:14:40.706Z,41.37
2019-02-26T14:17:07.136Z,41.31
2019-02-26T14:19:33.569Z,39.38
2019-02-26T14:22:01.643Z,38.78
2019-02-26T14:24:28.278Z,39.77
2019-02-26T14:26:55.948Z,39.88
2019-02-26T14:29:22.477Z,41.96
2019-02-26T14:31:48.910Z,42.15
2019-02-26T14:34:15.572Z,39.35
2019-02-26T14:36:42.086Z,39.52
2019-02-26T14:39:10.466Z,38.57
2019-02-26T14:41:37.208Z,39.05
2019-02-26T14:44:03.742Z,38.84
2019-02-26T14:46:30.631Z,37.14
2019-02-26T14:48:57.221Z,39.17
2019-02-26T14:51:23.758Z,37.95
2019-02-26T14:53:50.192Z,39.63
2019-02-26T14:56:16.736Z,39.29
2019-02-26T14:58:43.367Z,39.72
2019-02-26T15:01:10.004Z,37.75
2019-02-26T15:03:36.746Z,38.26
2019-02-26T15:06:03.311Z,38.28
2019-02-26T15:08:29.817Z,38.36
2019-02-26T15:10:56.560Z,38.25
2019-02-26T15:13:23.093Z,40.71
2019-02-26T15:15:49.632Z,39.36
2019-02-26T15:18:16.166Z,39.69
2019-02-26T15:20:44.236Z,39.55
2019-02-26T15:23:10.671Z,37.80
2019-02-26T15:25:37.924Z,37.65
2019-02-26T15:28:05.528Z,39.37
2019-02-26T15:30:32.224Z,38.70
2019-02-26T15:32:58.657Z,39.60
2019-02-26T15:35:25.500Z,38.55
2019-02-26T15:37:52.039Z,39.32
2019-02-26T15:40:20.833Z,39.01
2019-02-26T15:42:52.374Z,38.66
2019-02-26T15:45:24.021Z,39.36
2019-02-26T15:47:50.777Z,39.27
2019-02-26T15:50:18.234Z,39.40
2019-02-26T15:52:44.666Z,38.87
2019-02-26T15:55:13.764Z,38.98
2019-02-26T15:57:40.400Z,39.50
2019-02-26T16:00:10.994Z,40.06
2019-02-26T16:02:37.570Z,41.62
2019-02-26T16:05:06.974Z,41.75
2019-02-26T16:07:33.409Z,41.78
2019-02-26T16:09:59.945Z,42.25
2019-02-26T16:12:26.384Z,42.10
2019-02-26T16:14:52.912Z,42.84
2019-02-26T16:17:19.373Z,43.20
2019-02-26T16:19:45.886Z,43.05
2019-02-26T16:22:12.525Z,43.97
2019-02-26T16:24:39.063Z,43.68
2019-02-26T16:27:05.667Z,43.88
2019-02-26T16:29:32.128Z,43.62
2019-02-26T16:31:58.563Z,43.80
2019-02-26T16:34:25.199Z,44.49
2019-02-26T16:36:51.736Z,44.57
2019-02-26T16:39:18.170Z,44.87
2019-02-26T16:41:44.602Z,44.79
2019-02-26T16:44:11.343Z,44.54
2019-02-26T16:46:39.568Z,45.07
2019-02-26T16:49:06.466Z,44.35
2019-02-26T16:51:32.900Z,44.30
2019-02-26T16:53:59.744Z,44.07
2019-02-26T16:56:26.276Z,43.88
2019-02-26T16:58:54.143Z,44.18
2019-02-26T17:01:22.485Z,45.14
2019-02-26T17:03:49.058Z,44.79
2019-02-26T17:06:15.594Z,45.13
2019-02-26T17:08:42.027Z,45.59
2019-02-26T17:11:08.460Z,45.49
2019-02-26T17:13:35.100Z,45.92
2019-02-26T17:16:01.638Z,46.39
2019-02-26T17:18:29.299Z,47.39
2019-02-26T17:20:56.873Z,47.42
2019-02-26T17:23:23.906Z,47.69
2019-02-26T17:25:50.446Z,48.05
2019-02-26T17:28:17.086Z,48.33
2019-02-26T17:30:43.932Z,48.84
2019-02-26T17:33:13.205Z,49.24
2019-02-26T17:35:39.148Z,49.63
2019-02-26T17:38:05.684Z,49.93
2019-02-26T17:40:36.375Z,50.02
2019-02-26T17:43:00.599Z,50.56
2019-02-26T17:45:31.413Z,50.76
2019-02-26T17:47:57.868Z,51.29
2019-02-26T17:50:36.795Z,51.90
2019-02-26T17:53:03.221Z,51.89
2019-02-26T17:55:29.766Z,51.99
2019-02-26T17:57:56.300Z,52.42
2019-02-26T18:00:25.121Z,52.42
2019-02-26T18:02:51.623Z,52.55
2019-02-26T18:05:19.900Z,52.68
2019-02-26T18:07:46.436Z,52.56
2019-02-26T18:10:15.774Z,52.75
2019-02-26T18:12:42.682Z,52.74
2019-02-26T18:15:11.060Z,52.59
2019-02-26T18:17:37.687Z,53.11
2019-02-26T18:20:07.781Z,53.11
2019-02-26T18:22:34.253Z,53.15
2019-02-26T18:25:00.994Z,53.17
2019-02-26T18:27:30.256Z,53.16
2019-02-26T18:29:56.117Z,53.04
2019-02-26T18:32:22.651Z,53.38
2019-02-26T18:34:49.288Z,52.90
2019-02-26T18:37:17.706Z,53.69
2019-02-26T18:39:44.308Z,53.95
2019-02-26T18:42:10.841Z,54.10
2019-02-26T18:44:37.319Z,54.08
2019-02-26T18:47:04.816Z,54.01
2019-02-26T18:49:32.189Z,54.02
2019-02-26T18:51:58.623Z,54.36
2019-02-26T18:54:25.073Z,54.46
2019-02-26T18:56:51.592Z,54.10
2019-02-26T18:59:21.209Z,55.33
2019-02-26T19:01:46.408Z,56.44
2019-02-26T19:04:16.263Z,56.36
2019-02-26T19:06:43.265Z,55.78
2019-02-26T19:09:12.281Z,56.09
2019-02-26T19:11:38.897Z,56.33
2019-02-26T19:14:08.878Z,56.91
2019-02-26T19:16:33.742Z,57.27
2019-02-26T19:19:00.247Z,56.92
2019-02-26T19:21:26.788Z,58.28
2019-02-26T19:23:53.216Z,56.90
2019-02-26T19:26:19.674Z,58.73
2019-02-26T19:28:46.185Z,58.47
2019-02-26T19:31:12.736Z,58.14
2019-02-26T19:33:39.235Z,58.34
2019-02-26T19:36:05.848Z,58.49
2019-02-26T19:38:32.433Z,59.27
2019-02-26T19:41:02.469Z,58.32
2019-02-26T19:43:28.983Z,58.40
2019-02-26T19:45:55.830Z,59.26
2019-02-26T19:48:22.371Z,58.32
2019-02-26T19:50:49.012Z,59.41
2019-02-26T19:53:19.227Z,59.52
2019-02-26T19:55:49.768Z,58.78
2019-02-26T19:58:16.290Z,58.78
2019-02-26T20:00:42.826Z,59.19
2019-02-26T20:03:09.262Z,59.53
2019-02-26T20:05:35.796Z,58.51
2019-02-26T20:08:04.884Z,58.32
2019-02-26T20:10:30.917Z,57.96
2019-02-26T20:13:00.558Z,57.58
2019-02-26T20:15:26.141Z,57.48
2019-02-26T20:17:52.674Z,57.45
2019-02-26T20:20:20.761Z,57.99
2019-02-26T20:22:47.300Z,58.46
2019-02-26T20:25:18.429Z,58.46
2019-02-26T20:27:45.169Z,58.52
2019-02-26T20:30:14.879Z,59.01
2019-02-26T20:32:41.518Z,58.74
2019-02-26T20:35:11.930Z,59.63
2019-02-26T20:37:38.378Z,59.68
2019-02-26T20:40:08.414Z,60.85
2019-02-26T20:42:34.928Z,61.80
2019-02-26T20:45:01.465Z,61.97
2019-02-26T20:47:31.327Z,62.39
2019-02-26T20:49:56.382Z,63.74
2019-02-26T20:52:22.918Z,62.01
2019-02-26T20:54:49.760Z,61.53
2019-02-26T20:57:16.296Z,61.15
2019-02-26T20:59:42.729Z,61.08
2019-02-26T21:02:09.163Z,60.90
2019-02-26T21:04:35.697Z,60.85
2019-02-26T21:07:02.234Z,60.85
2019-02-26T21:09:28.669Z,61.32
2019-02-26T21:11:55.860Z,60.46
2019-02-26T21:14:22.866Z,60.34
2019-02-26T21:16:53.454Z,59.71
2019-02-26T21:19:17.686Z,59.63
2019-02-26T21:21:44.112Z,59.41
2019-02-26T21:24:10.753Z,59.25
2019-02-26T21:26:37.288Z,59.56
2019-02-26T21:29:06.277Z,59.95
2019-02-26T21:31:32.214Z,60.60
2019-02-26T21:33:58.739Z,60.60
2019-02-26T21:36:27.752Z,62.32
2019-02-26T21:38:54.079Z,60.93
2019-02-26T21:41:21.026Z,60.18
2019-02-26T21:43:48.985Z,60.46
2019-02-26T21:46:15.515Z,59.18
2019-02-26T21:48:41.947Z,59.18
2019-02-26T21:51:08.486Z,60.25
2019-02-26T21:53:35.019Z,60.25
2019-02-26T21:56:03.378Z,61.02
2019-02-26T21:58:29.843Z,62.37
2019-02-26T22:00:56.268Z,62.37
2019-02-26T22:03:24.835Z,62.54
2019-02-26T22:05:51.179Z,62.62
2019-02-26T22:08:17.716Z,62.04
2019-02-26T22:10:44.252Z,62.04
2019-02-26T22:13:10.788Z,61.55
2019-02-26T22:15:37.324Z,62.45
2019-02-26T22:18:03.757Z,62.19
2019-02-26T22:20:36.205Z,63.88
2019-02-26T22:23:00.464Z,63.10
2019-02-26T22:25:27.052Z,63.74
2019-02-26T22:27:53.592Z,63.62
2019-02-26T22:30:22.023Z,64.05
2019-02-26T22:32:48.503Z,64.05
2019-02-26T22:35:15.040Z,64.65
2019-02-26T22:37:42.114Z,64.82
2019-02-26T22:40:10.773Z,64.47
2019-02-26T22:42:38.824Z,65.51
2019-02-26T22:45:08.558Z,64.99
2019-02-26T22:47:34.991Z,65.92
2019-02-26T22:50:03.157Z,65.49
2019-02-26T22:52:31.253Z,65.42
2019-02-26T22:54:57.876Z,64.99
2019-02-26T22:57:24.717Z,64.96
2019-02-26T22:59:51.154Z,65.71
2019-02-26T23:02:19.125Z,65.52
2019-02-26T23:04:45.768Z,65.38
2019-02-26T23:07:12.501Z,65.50
2019-02-26T23:09:39.223Z,65.78
2019-02-26T23:12:07.313Z,65.62
2019-02-26T23:14:35.904Z,65.29
2019-02-26T23:17:03.763Z,65.39
2019-02-26T23:19:30.198Z,65.39
2019-02-26T23:21:56.840Z,65.58
2019-02-26T23:24:27.757Z,65.60
2019-02-26T23:26:52.166Z,65.83
2019-02-26T23:29:18.698Z,65.88
2019-02-26T23:31:45.641Z,65.52
2019-02-26T23:34:12.792Z,65.51
2019-02-26T23:36:39.636Z,65.50
2019-02-26T23:39:07.134Z,65.35
2019-02-26T23:41:33.851Z,65.49
2019-02-26T23:44:00.676Z,65.45
2019-02-26T23:46:29.561Z,65.95
2019-02-26T23:48:55.489Z,65.70
2019-02-26T23:51:22.229Z,65.88
2019-02-26T23:53:48.665Z,66.78
2019-02-26T23:56:16.779Z,67.06
2019-02-26T23:58:43.680Z,66.86
